createdAt,value
2023-03-31T00:05:37.788Z,8.96
2023-03-31T00:15:46.325Z,8.96
2023-03-31T00:25:53.279Z,8.96
2023-03-31T00:36:02.469Z,8.99
2023-03-31T00:46:13.708Z,8.89
2023-03-31T00:56:21.119Z,8.77
2023-03-31T01:06:31.059Z,8.69
2023-03-31T01:16:40.774Z,8.71
2023-03-31T01:26:51.633Z,8.65
2023-03-31T01:37:32.951Z,8.49
2023-03-31T01:47:39.679Z,8.30
2023-03-31T01:57:45.091Z,8.18
2023-03-31T02:07:55.786Z,8.06
2023-03-31T02:18:11.205Z,7.94
2023-03-31T02:28:20.559Z,7.87
2023-03-31T02:38:27.199Z,7.90
2023-03-31T02:48:39.014Z,7.89
2023-03-31T02:59:06.923Z,7.84
2023-03-31T03:09:18.498Z,7.81
2023-03-31T03:19:26.738Z,7.71
2023-03-31T03:29:33.678Z,7.56
2023-03-31T03:39:40.658Z,7.57
2023-03-31T03:49:49.355Z,7.60
2023-03-31T03:59:56.636Z,7.54
2023-03-31T04:10:03.845Z,7.41
2023-03-31T04:20:13.791Z,7.29
2023-03-31T04:30:23.896Z,7.23
2023-03-31T04:40:31.145Z,7.25
2023-03-31T04:50:37.653Z,7.32
2023-03-31T05:00:45.361Z,7.42
2023-03-31T05:10:52.826Z,7.57
2023-03-31T05:21:09.214Z,7.66
2023-03-31T05:31:17.869Z,7.88
2023-03-31T05:41:24.951Z,8.15
2023-03-31T05:51:32.082Z,8.52
2023-03-31T06:01:38.256Z,9.50
2023-03-31T06:11:46.339Z,10.29
2023-03-31T06:21:54.265Z,10.12
2023-03-31T06:32:01.515Z,9.93
2023-03-31T06:42:08.755Z,9.91
2023-03-31T06:52:15.997Z,10.09
2023-03-31T07:02:23.584Z,10.51
2023-03-31T07:12:29.558Z,12.51
2023-03-31T07:22:36.712Z,12.89
2023-03-31T07:32:44.160Z,13.00
2023-03-31T07:42:52.414Z,13.42
2023-03-31T07:52:59.772Z,13.72
2023-03-31T08:03:06.241Z,13.84
2023-03-31T08:13:13.592Z,14.36
2023-03-31T08:23:21.061Z,14.99
2023-03-31T08:33:28.482Z,15.39
2023-03-31T08:43:40.917Z,15.65
2023-03-31T08:53:52.296Z,15.61
2023-03-31T09:04:08.140Z,15.79
2023-03-31T09:14:28.887Z,15.55
2023-03-31T09:24:34.057Z,16.02
2023-03-31T09:34:41.861Z,16.54
2023-03-31T09:44:50.287Z,17.09
2023-03-31T09:54:57.193Z,17.28
2023-03-31T10:05:03.475Z,16.82
2023-03-31T10:15:21.481Z,16.58
2023-03-31T10:25:29.299Z,16.53
2023-03-31T10:35:38.302Z,16.80
2023-03-31T10:45:43.711Z,16.67
2023-03-31T10:55:54.502Z,16.39
2023-03-31T11:06:05.530Z,16.63
2023-03-31T11:16:14.664Z,16.54
2023-03-31T11:26:31.122Z,16.32
2023-03-31T11:36:42.044Z,15.95
2023-03-31T11:46:47.551Z,15.54
2023-03-31T11:56:56.446Z,15.78
2023-03-31T12:07:02.715Z,16.29
2023-03-31T12:17:09.687Z,16.69
2023-03-31T12:27:14.695Z,16.61
2023-03-31T12:37:58.757Z,16.35
2023-03-31T12:48:12.299Z,16.06
2023-03-31T12:58:49.285Z,15.74
2023-03-31T13:08:55.397Z,15.25
2023-03-31T13:19:03.135Z,15.10
2023-03-31T13:29:11.122Z,15.00
2023-03-31T13:39:38.450Z,15.15
2023-03-31T13:49:54.728Z,15.04
2023-03-31T14:10:27.628Z,12.70
2023-03-31T14:20:35.864Z,12.09
2023-03-31T14:30:42.731Z,11.97
2023-03-31T14:40:53.944Z,12.35
2023-03-31T14:50:58.846Z,12.89
2023-03-31T15:01:07.092Z,13.08
2023-03-31T15:11:21.383Z,13.03
2023-03-31T15:21:32.432Z,12.71
2023-03-31T15:31:37.551Z,12.38
2023-03-31T15:41:46.425Z,12.06
2023-03-31T15:51:56.007Z,11.85
2023-03-31T16:02:03.984Z,11.59
2023-03-31T16:12:12.246Z,11.52
2023-03-31T16:22:20.579Z,11.53
2023-03-31T16:32:28.079Z,11.42
2023-03-31T16:42:35.578Z,11.37
2023-03-31T16:52:43.217Z,11.32
2023-03-31T17:02:50.362Z,11.20
2023-03-31T17:12:58.093Z,11.04
2023-03-31T17:23:05.186Z,10.94
2023-03-31T17:33:11.520Z,10.77
2023-03-31T17:43:18.769Z,10.66
2023-03-31T17:53:24.909Z,10.49
2023-03-31T18:03:33.233Z,10.26
2023-03-31T18:13:40.997Z,10.08
2023-03-31T18:23:47.047Z,9.83
2023-03-31T18:33:55.053Z,9.69
2023-03-31T18:44:02.068Z,9.51
2023-03-31T18:54:09.429Z,9.40
2023-03-31T19:04:16.576Z,9.37
2023-03-31T19:14:23.944Z,9.30
2023-03-31T19:24:29.860Z,9.21
2023-03-31T19:34:37.153Z,9.18
2023-03-31T19:44:46.276Z,9.15
2023-03-31T19:54:53.952Z,8.99
2023-03-31T20:05:01.236Z,8.80
2023-03-31T20:15:10.004Z,8.67
2023-03-31T20:25:17.299Z,8.66
2023-03-31T20:35:25.044Z,8.58
2023-03-31T20:45:32.493Z,8.48
2023-03-31T20:55:40.461Z,8.40
2023-03-31T21:05:48.846Z,8.30
2023-03-31T21:15:56.788Z,8.07
2023-03-31T21:26:05.843Z,7.92
2023-03-31T21:36:16.560Z,7.92
2023-03-31T21:46:26.734Z,8.07
2023-03-31T21:56:34.617Z,8.21
2023-03-31T22:06:41.950Z,8.28
2023-03-31T22:16:49.025Z,8.26
2023-03-31T22:26:56.052Z,8.23
2023-03-31T22:37:03.373Z,8.10
2023-03-31T22:47:10.335Z,8.00
2023-03-31T23:07:23.354Z,7.69
2023-03-31T23:17:29.857Z,7.55
2023-03-31T23:27:37.065Z,7.50
2023-03-31T23:37:44.702Z,7.44
2023-03-31T23:47:51.227Z,7.36
2023-03-31T23:57:58.921Z,7.38
